EKRD weather

Randers Airport
Randers, Central Jutland, Denmark

Public forecast

Using degrees Celsius for public forecast. Weather courtesy of forecast.io.

Closest aviation weather report (METAR) to Randers Airport

Closest report is Aarhus Airport, 23.0 nm (42.6 km) ESE. Retrieved 2019/11/20 03:20 UTC (0 seconds ago):

EKAH 200320Z AUTO 23004KT 190V270 9999NDV OVC022/// 07/06 Q1019

Closest aviation forecast (TAF) to Randers Airport

Closest forecast is Aarhus Airport, 23.0 nm (42.6 km) ESE. Retrieved 2019-11-20 00:24 UTC (3 hours ago):

TAF TAF EKAH 192318Z 2000/2024 28005KT 9999 BKN006 BECMG 2000/2002 BKN040 BECMG 2016/2018 3000 RADZ BR BKN005 TEMPO 2018/2024 8000 -RADZ SCT005 BKN012 BECMG 2020/2022 12012KT